sensor_id;sensor_type;location;lat;lon;timestamp;P1;durP1;ratioP1;P2;durP2;ratioP2
69305;SDS011;56427;51.580;4.656;2022-10-16T00:01:37;9.03;;;3.60;;
69305;SDS011;56427;51.580;4.656;2022-10-16T00:04:03;9.15;;;3.47;;
69305;SDS011;56427;51.580;4.656;2022-10-16T00:06:29;7.43;;;3.13;;
69305;SDS011;56427;51.580;4.656;2022-10-16T00:08:55;6.82;;;3.35;;
69305;SDS011;56427;51.580;4.656;2022-10-16T00:11:25;7.47;;;3.40;;
69305;SDS011;56427;51.580;4.656;2022-10-16T00:13:54;11.18;;;3.22;;
69305;SDS011;56427;51.580;4.656;2022-10-16T00:16:20;5.75;;;3.40;;
69305;SDS011;56427;51.580;4.656;2022-10-16T00:18:46;10.20;;;3.77;;
69305;SDS011;56427;51.580;4.656;2022-10-16T00:21:15;7.57;;;3.30;;
69305;SDS011;56427;51.580;4.656;2022-10-16T00:23:43;6.30;;;2.90;;
69305;SDS011;56427;51.580;4.656;2022-10-16T00:26:09;6.33;;;3.17;;
69305;SDS011;56427;51.580;4.656;2022-10-16T00:28:37;5.72;;;3.25;;
69305;SDS011;56427;51.580;4.656;2022-10-16T00:31:03;8.37;;;3.37;;
69305;SDS011;56427;51.580;4.656;2022-10-16T00:33:30;6.55;;;2.80;;
69305;SDS011;56427;51.580;4.656;2022-10-16T00:35:57;6.53;;;2.93;;
69305;SDS011;56427;51.580;4.656;2022-10-16T00:38:23;10.02;;;3.20;;
69305;SDS011;56427;51.580;4.656;2022-10-16T00:40:48;7.90;;;3.07;;
69305;SDS011;56427;51.580;4.656;2022-10-16T00:46:08;6.88;;;2.97;;
69305;SDS011;56427;51.580;4.656;2022-10-16T00:51:39;8.40;;;2.60;;
69305;SDS011;56427;51.580;4.656;2022-10-16T00:54:08;4.90;;;2.40;;
69305;SDS011;56427;51.580;4.656;2022-10-16T00:56:38;5.25;;;2.50;;
69305;SDS011;56427;51.580;4.656;2022-10-16T00:59:04;6.55;;;2.80;;
69305;SDS011;56427;51.580;4.656;2022-10-16T01:01:36;4.82;;;2.58;;
69305;SDS011;56427;51.580;4.656;2022-10-16T01:04:01;6.27;;;2.17;;
69305;SDS011;56427;51.580;4.656;2022-10-16T01:09:23;5.50;;;2.42;;
69305;SDS011;56427;51.580;4.656;2022-10-16T01:14:34;5.97;;;2.15;;
69305;SDS011;56427;51.580;4.656;2022-10-16T01:17:21;5.00;;;2.10;;
69305;SDS011;56427;51.580;4.656;2022-10-16T01:22:43;6.57;;;2.80;;
69305;SDS011;56427;51.580;4.656;2022-10-16T01:25:22;6.20;;;2.58;;
69305;SDS011;56427;51.580;4.656;2022-10-16T01:27:54;3.72;;;2.38;;
69305;SDS011;56427;51.580;4.656;2022-10-16T01:30:21;5.57;;;2.30;;
69305;SDS011;56427;51.580;4.656;2022-10-16T01:32:56;5.38;;;2.20;;
69305;SDS011;56427;51.580;4.656;2022-10-16T01:35:26;4.70;;;2.20;;
69305;SDS011;56427;51.580;4.656;2022-10-16T01:38:05;6.25;;;2.20;;
69305;SDS011;56427;51.580;4.656;2022-10-16T01:40:34;6.97;;;2.35;;
69305;SDS011;56427;51.580;4.656;2022-10-16T01:43:11;5.63;;;2.10;;
69305;SDS011;56427;51.580;4.656;2022-10-16T01:45:44;3.88;;;2.28;;
69305;SDS011;56427;51.580;4.656;2022-10-16T01:48:11;4.35;;;2.03;;
69305;SDS011;56427;51.580;4.656;2022-10-16T01:50:41;5.80;;;2.33;;
69305;SDS011;56427;51.580;4.656;2022-10-16T01:53:09;4.40;;;2.20;;
69305;SDS011;56427;51.580;4.656;2022-10-16T01:55:38;4.73;;;2.00;;
69305;SDS011;56427;51.580;4.656;2022-10-16T01:58:10;4.20;;;2.13;;
69305;SDS011;56427;51.580;4.656;2022-10-16T02:00:38;3.28;;;1.88;;
69305;SDS011;56427;51.580;4.656;2022-10-16T02:03:07;5.32;;;2.20;;
69305;SDS011;56427;51.580;4.656;2022-10-16T02:05:44;4.93;;;2.05;;
69305;SDS011;56427;51.580;4.656;2022-10-16T02:08:11;4.37;;;1.87;;
69305;SDS011;56427;51.580;4.656;2022-10-16T02:10:37;4.00;;;1.88;;
69305;SDS011;56427;51.580;4.656;2022-10-16T02:13:06;4.00;;;2.00;;
69305;SDS011;56427;51.580;4.656;2022-10-16T02:15:35;3.63;;;1.80;;
69305;SDS011;56427;51.580;4.656;2022-10-16T02:18:02;4.50;;;1.83;;
69305;SDS011;56427;51.580;4.656;2022-10-16T02:20:29;3.75;;;1.90;;
69305;SDS011;56427;51.580;4.656;2022-10-16T02:22:59;3.43;;;1.80;;
69305;SDS011;56427;51.580;4.656;2022-10-16T02:25:36;5.43;;;1.80;;
69305;SDS011;56427;51.580;4.656;2022-10-16T02:28:22;5.78;;;2.00;;
69305;SDS011;56427;51.580;4.656;2022-10-16T02:30:57;5.78;;;1.83;;
69305;SDS011;56427;51.580;4.656;2022-10-16T02:33:26;3.20;;;1.63;;
69305;SDS011;56427;51.580;4.656;2022-10-16T02:35:54;5.80;;;1.80;;
69305;SDS011;56427;51.580;4.656;2022-10-16T02:38:21;3.15;;;1.67;;
69305;SDS011;56427;51.580;4.656;2022-10-16T02:40:48;4.78;;;1.70;;
69305;SDS011;56427;51.580;4.656;2022-10-16T02:43:14;5.25;;;1.63;;
69305;SDS011;56427;51.580;4.656;2022-10-16T02:45:39;4.30;;;1.90;;
69305;SDS011;56427;51.580;4.656;2022-10-16T02:48:05;5.45;;;1.60;;
69305;SDS011;56427;51.580;4.656;2022-10-16T02:50:31;5.93;;;1.70;;
69305;SDS011;56427;51.580;4.656;2022-10-16T02:52:56;3.40;;;1.30;;
69305;SDS011;56427;51.580;4.656;2022-10-16T02:55:21;2.83;;;1.47;;
69305;SDS011;56427;51.580;4.656;2022-10-16T02:57:47;5.82;;;1.48;;
69305;SDS011;56427;51.580;4.656;2022-10-16T03:00:13;3.80;;;1.57;;
69305;SDS011;56427;51.580;4.656;2022-10-16T03:02:39;5.55;;;1.70;;
69305;SDS011;56427;51.580;4.656;2022-10-16T03:05:05;4.13;;;1.63;;
69305;SDS011;56427;51.580;4.656;2022-10-16T03:07:31;4.87;;;1.83;;
69305;SDS011;56427;51.580;4.656;2022-10-16T03:09:56;3.95;;;1.80;;
69305;SDS011;56427;51.580;4.656;2022-10-16T03:12:22;4.53;;;1.60;;
69305;SDS011;56427;51.580;4.656;2022-10-16T03:14:47;6.00;;;1.60;;
69305;SDS011;56427;51.580;4.656;2022-10-16T03:17:15;3.90;;;1.53;;
69305;SDS011;56427;51.580;4.656;2022-10-16T03:19:41;3.30;;;1.50;;
69305;SDS011;56427;51.580;4.656;2022-10-16T03:22:07;5.77;;;1.70;;
69305;SDS011;56427;51.580;4.656;2022-10-16T03:24:32;6.78;;;1.92;;
69305;SDS011;56427;51.580;4.656;2022-10-16T03:26:57;3.77;;;1.70;;
69305;SDS011;56427;51.580;4.656;2022-10-16T03:29:23;6.00;;;1.70;;
69305;SDS011;56427;51.580;4.656;2022-10-16T03:31:48;4.13;;;1.70;;
69305;SDS011;56427;51.580;4.656;2022-10-16T03:34:14;3.75;;;1.85;;
69305;SDS011;56427;51.580;4.656;2022-10-16T03:36:39;4.27;;;1.47;;
69305;SDS011;56427;51.580;4.656;2022-10-16T03:39:05;4.40;;;1.83;;
69305;SDS011;56427;51.580;4.656;2022-10-16T03:41:30;5.63;;;1.90;;
69305;SDS011;56427;51.580;4.656;2022-10-16T03:43:55;3.23;;;1.30;;
69305;SDS011;56427;51.580;4.656;2022-10-16T03:46:21;4.63;;;2.00;;
69305;SDS011;56427;51.580;4.656;2022-10-16T03:48:46;3.67;;;1.80;;
69305;SDS011;56427;51.580;4.656;2022-10-16T03:51:11;4.87;;;1.90;;
69305;SDS011;56427;51.580;4.656;2022-10-16T03:53:37;4.77;;;1.90;;
69305;SDS011;56427;51.580;4.656;2022-10-16T03:56:02;3.90;;;1.60;;
69305;SDS011;56427;51.580;4.656;2022-10-16T03:58:27;4.23;;;2.10;;
69305;SDS011;56427;51.580;4.656;2022-10-16T04:00:53;5.00;;;1.90;;
69305;SDS011;56427;51.580;4.656;2022-10-16T04:03:18;4.70;;;1.90;;
69305;SDS011;56427;51.580;4.656;2022-10-16T04:05:44;6.28;;;1.77;;
69305;SDS011;56427;51.580;4.656;2022-10-16T04:08:09;3.60;;;1.80;;
69305;SDS011;56427;51.580;4.656;2022-10-16T04:10:34;5.67;;;1.80;;
69305;SDS011;56427;51.580;4.656;2022-10-16T04:13:00;7.07;;;2.00;;
69305;SDS011;56427;51.580;4.656;2022-10-16T04:15:25;4.37;;;2.00;;
69305;SDS011;56427;51.580;4.656;2022-10-16T04:17:51;4.67;;;1.87;;
69305;SDS011;56427;51.580;4.656;2022-10-16T04:20:17;4.70;;;1.90;;
69305;SDS011;56427;51.580;4.656;2022-10-16T04:22:42;4.40;;;2.30;;
69305;SDS011;56427;51.580;4.656;2022-10-16T04:25:08;4.60;;;2.00;;
69305;SDS011;56427;51.580;4.656;2022-10-16T04:27:33;5.60;;;2.20;;
69305;SDS011;56427;51.580;4.656;2022-10-16T04:29:59;8.30;;;2.27;;
69305;SDS011;56427;51.580;4.656;2022-10-16T04:32:24;3.93;;;2.07;;
69305;SDS011;56427;51.580;4.656;2022-10-16T04:34:50;6.07;;;2.03;;
69305;SDS011;56427;51.580;4.656;2022-10-16T04:37:16;5.07;;;2.23;;
69305;SDS011;56427;51.580;4.656;2022-10-16T04:39:41;5.23;;;2.10;;
69305;SDS011;56427;51.580;4.656;2022-10-16T04:42:06;4.47;;;2.03;;
69305;SDS011;56427;51.580;4.656;2022-10-16T04:44:31;5.43;;;2.00;;
69305;SDS011;56427;51.580;4.656;2022-10-16T04:46:57;5.60;;;1.93;;
69305;SDS011;56427;51.580;4.656;2022-10-16T04:49:22;4.73;;;1.90;;
69305;SDS011;56427;51.580;4.656;2022-10-16T04:51:47;5.60;;;2.20;;
69305;SDS011;56427;51.580;4.656;2022-10-16T04:54:13;4.33;;;2.33;;
69305;SDS011;56427;51.580;4.656;2022-10-16T04:56:38;6.77;;;2.30;;
69305;SDS011;56427;51.580;4.656;2022-10-16T04:59:15;7.13;;;2.83;;
69305;SDS011;56427;51.580;4.656;2022-10-16T05:01:41;5.28;;;2.38;;
69305;SDS011;56427;51.580;4.656;2022-10-16T05:04:06;6.23;;;2.37;;
69305;SDS011;56427;51.580;4.656;2022-10-16T05:06:31;7.50;;;2.57;;
69305;SDS011;56427;51.580;4.656;2022-10-16T05:08:57;4.90;;;2.20;;
69305;SDS011;56427;51.580;4.656;2022-10-16T05:11:22;8.63;;;3.00;;
69305;SDS011;56427;51.580;4.656;2022-10-16T05:13:47;8.83;;;2.27;;
69305;SDS011;56427;51.580;4.656;2022-10-16T05:16:13;5.27;;;2.60;;
69305;SDS011;56427;51.580;4.656;2022-10-16T05:18:38;5.93;;;2.90;;
69305;SDS011;56427;51.580;4.656;2022-10-16T05:21:03;9.80;;;2.77;;
69305;SDS011;56427;51.580;4.656;2022-10-16T05:23:28;5.60;;;2.80;;
69305;SDS011;56427;51.580;4.656;2022-10-16T05:25:55;4.80;;;3.00;;
69305;SDS011;56427;51.580;4.656;2022-10-16T05:28:23;8.27;;;2.67;;
69305;SDS011;56427;51.580;4.656;2022-10-16T05:30:49;4.80;;;2.28;;
69305;SDS011;56427;51.580;4.656;2022-10-16T05:33:14;6.53;;;2.60;;
69305;SDS011;56427;51.580;4.656;2022-10-16T05:35:40;4.77;;;2.63;;
69305;SDS011;56427;51.580;4.656;2022-10-16T05:38:06;8.90;;;3.10;;
69305;SDS011;56427;51.580;4.656;2022-10-16T05:40:31;5.73;;;2.20;;
69305;SDS011;56427;51.580;4.656;2022-10-16T05:42:56;5.50;;;2.30;;
69305;SDS011;56427;51.580;4.656;2022-10-16T05:45:22;6.57;;;2.77;;
69305;SDS011;56427;51.580;4.656;2022-10-16T05:47:47;8.00;;;2.67;;
69305;SDS011;56427;51.580;4.656;2022-10-16T05:50:12;3.83;;;2.43;;
69305;SDS011;56427;51.580;4.656;2022-10-16T05:52:38;7.97;;;2.63;;
69305;SDS011;56427;51.580;4.656;2022-10-16T05:55:03;6.30;;;2.43;;
69305;SDS011;56427;51.580;4.656;2022-10-16T05:57:29;8.10;;;2.53;;
69305;SDS011;56427;51.580;4.656;2022-10-16T05:59:54;6.60;;;2.50;;
69305;SDS011;56427;51.580;4.656;2022-10-16T06:02:20;9.17;;;2.47;;
69305;SDS011;56427;51.580;4.656;2022-10-16T06:04:45;4.47;;;2.47;;
69305;SDS011;56427;51.580;4.656;2022-10-16T06:07:10;5.17;;;2.70;;
69305;SDS011;56427;51.580;4.656;2022-10-16T06:09:35;8.90;;;2.43;;
69305;SDS011;56427;51.580;4.656;2022-10-16T06:12:01;6.03;;;2.07;;
69305;SDS011;56427;51.580;4.656;2022-10-16T06:14:26;7.90;;;2.50;;
69305;SDS011;56427;51.580;4.656;2022-10-16T06:16:51;7.53;;;2.47;;
69305;SDS011;56427;51.580;4.656;2022-10-16T06:19:17;8.47;;;2.50;;
69305;SDS011;56427;51.580;4.656;2022-10-16T06:21:43;7.40;;;2.55;;
69305;SDS011;56427;51.580;4.656;2022-10-16T06:24:09;4.95;;;2.17;;
69305;SDS011;56427;51.580;4.656;2022-10-16T06:26:34;7.73;;;2.60;;
69305;SDS011;56427;51.580;4.656;2022-10-16T06:28:59;4.77;;;2.10;;
69305;SDS011;56427;51.580;4.656;2022-10-16T06:31:25;8.83;;;2.10;;
69305;SDS011;56427;51.580;4.656;2022-10-16T06:33:53;7.45;;;2.20;;
69305;SDS011;56427;51.580;4.656;2022-10-16T06:36:20;6.53;;;2.10;;
69305;SDS011;56427;51.580;4.656;2022-10-16T06:38:45;7.72;;;2.40;;
69305;SDS011;56427;51.580;4.656;2022-10-16T06:41:13;7.80;;;2.13;;
69305;SDS011;56427;51.580;4.656;2022-10-16T06:43:42;9.38;;;2.60;;
69305;SDS011;56427;51.580;4.656;2022-10-16T06:46:09;7.25;;;2.80;;
69305;SDS011;56427;51.580;4.656;2022-10-16T06:48:36;6.57;;;2.15;;
69305;SDS011;56427;51.580;4.656;2022-10-16T06:53:30;8.93;;;2.28;;
69305;SDS011;56427;51.580;4.656;2022-10-16T06:55:57;5.93;;;1.92;;
69305;SDS011;56427;51.580;4.656;2022-10-16T06:58:23;6.23;;;2.13;;
69305;SDS011;56427;51.580;4.656;2022-10-16T07:00:49;6.88;;;2.22;;
69305;SDS011;56427;51.580;4.656;2022-10-16T07:03:20;12.55;;;2.40;;
69305;SDS011;56427;51.580;4.656;2022-10-16T07:05:45;10.57;;;2.20;;
69305;SDS011;56427;51.580;4.656;2022-10-16T07:08:10;8.33;;;1.97;;
69305;SDS011;56427;51.580;4.656;2022-10-16T07:10:36;6.53;;;2.00;;
69305;SDS011;56427;51.580;4.656;2022-10-16T07:13:01;7.23;;;2.00;;
69305;SDS011;56427;51.580;4.656;2022-10-16T07:15:27;9.93;;;2.10;;
69305;SDS011;56427;51.580;4.656;2022-10-16T07:17:52;4.78;;;1.70;;
69305;SDS011;56427;51.580;4.656;2022-10-16T07:20:18;6.10;;;1.60;;
69305;SDS011;56427;51.580;4.656;2022-10-16T07:22:44;10.95;;;2.05;;
69305;SDS011;56427;51.580;4.656;2022-10-16T07:25:09;8.80;;;2.10;;
69305;SDS011;56427;51.580;4.656;2022-10-16T07:27:34;5.13;;;1.73;;
69305;SDS011;56427;51.580;4.656;2022-10-16T07:30:00;4.33;;;1.90;;
69305;SDS011;56427;51.580;4.656;2022-10-16T07:32:25;6.37;;;1.70;;
69305;SDS011;56427;51.580;4.656;2022-10-16T07:34:51;7.20;;;2.10;;
69305;SDS011;56427;51.580;4.656;2022-10-16T07:37:17;7.27;;;2.13;;
69305;SDS011;56427;51.580;4.656;2022-10-16T07:39:42;4.70;;;1.70;;
69305;SDS011;56427;51.580;4.656;2022-10-16T07:42:07;6.90;;;1.95;;
69305;SDS011;56427;51.580;4.656;2022-10-16T07:44:33;4.70;;;1.80;;
69305;SDS011;56427;51.580;4.656;2022-10-16T07:46:58;8.37;;;2.33;;
69305;SDS011;56427;51.580;4.656;2022-10-16T07:49:24;7.00;;;1.90;;
69305;SDS011;56427;51.580;4.656;2022-10-16T07:51:49;7.13;;;1.90;;
69305;SDS011;56427;51.580;4.656;2022-10-16T07:54:14;11.83;;;2.10;;
69305;SDS011;56427;51.580;4.656;2022-10-16T07:56:40;6.30;;;1.80;;
69305;SDS011;56427;51.580;4.656;2022-10-16T07:59:05;9.47;;;2.03;;
69305;SDS011;56427;51.580;4.656;2022-10-16T08:01:30;4.10;;;1.70;;
69305;SDS011;56427;51.580;4.656;2022-10-16T08:03:56;8.13;;;1.90;;
69305;SDS011;56427;51.580;4.656;2022-10-16T08:06:21;4.80;;;1.77;;
69305;SDS011;56427;51.580;4.656;2022-10-16T08:08:47;5.57;;;2.10;;
69305;SDS011;56427;51.580;4.656;2022-10-16T08:11:13;8.87;;;1.90;;
69305;SDS011;56427;51.580;4.656;2022-10-16T08:13:39;7.72;;;1.90;;
69305;SDS011;56427;51.580;4.656;2022-10-16T08:16:06;7.45;;;2.20;;
69305;SDS011;56427;51.580;4.656;2022-10-16T08:18:33;6.10;;;1.77;;
69305;SDS011;56427;51.580;4.656;2022-10-16T08:21:02;7.72;;;1.85;;
69305;SDS011;56427;51.580;4.656;2022-10-16T08:23:29;7.20;;;2.10;;
69305;SDS011;56427;51.580;4.656;2022-10-16T08:25:55;7.43;;;1.50;;
69305;SDS011;56427;51.580;4.656;2022-10-16T08:28:21;6.60;;;1.70;;
69305;SDS011;56427;51.580;4.656;2022-10-16T08:30:47;5.27;;;1.67;;
69305;SDS011;56427;51.580;4.656;2022-10-16T08:33:13;7.90;;;1.80;;
69305;SDS011;56427;51.580;4.656;2022-10-16T08:35:38;7.93;;;2.07;;
69305;SDS011;56427;51.580;4.656;2022-10-16T08:38:04;6.53;;;1.80;;
69305;SDS011;56427;51.580;4.656;2022-10-16T08:40:30;7.20;;;2.03;;
69305;SDS011;56427;51.580;4.656;2022-10-16T08:45:34;5.37;;;1.80;;
69305;SDS011;56427;51.580;4.656;2022-10-16T08:48:20;10.65;;;2.30;;
69305;SDS011;56427;51.580;4.656;2022-10-16T08:50:52;6.50;;;1.77;;
69305;SDS011;56427;51.580;4.656;2022-10-16T08:53:23;11.10;;;2.03;;
69305;SDS011;56427;51.580;4.656;2022-10-16T08:55:53;10.43;;;2.27;;
69305;SDS011;56427;51.580;4.656;2022-10-16T08:58:19;7.50;;;1.85;;
69305;SDS011;56427;51.580;4.656;2022-10-16T09:00:47;6.72;;;2.00;;
69305;SDS011;56427;51.580;4.656;2022-10-16T09:08:38;11.48;;;1.95;;
69305;SDS011;56427;51.580;4.656;2022-10-16T09:11:11;9.20;;;1.92;;
69305;SDS011;56427;51.580;4.656;2022-10-16T09:16:35;9.18;;;2.05;;
69305;SDS011;56427;51.580;4.656;2022-10-16T09:22:14;11.95;;;2.42;;
69305;SDS011;56427;51.580;4.656;2022-10-16T09:24:41;16.40;;;2.58;;
69305;SDS011;56427;51.580;4.656;2022-10-16T09:27:10;14.10;;;1.80;;
69305;SDS011;56427;51.580;4.656;2022-10-16T09:29:36;8.75;;;2.00;;
69305;SDS011;56427;51.580;4.656;2022-10-16T09:32:15;9.53;;;1.80;;
69305;SDS011;56427;51.580;4.656;2022-10-16T09:34:47;12.32;;;2.35;;
69305;SDS011;56427;51.580;4.656;2022-10-16T09:37:17;12.87;;;2.43;;
69305;SDS011;56427;51.580;4.656;2022-10-16T09:39:45;21.50;;;2.58;;
69305;SDS011;56427;51.580;4.656;2022-10-16T09:44:48;12.07;;;2.00;;
69305;SDS011;56427;51.580;4.656;2022-10-16T09:47:16;13.30;;;2.00;;
69305;SDS011;56427;51.580;4.656;2022-10-16T09:49:52;15.30;;;2.23;;
69305;SDS011;56427;51.580;4.656;2022-10-16T09:52:20;9.63;;;2.03;;
69305;SDS011;56427;51.580;4.656;2022-10-16T09:54:56;10.80;;;2.20;;
69305;SDS011;56427;51.580;4.656;2022-10-16T09:57:23;12.40;;;2.20;;
69305;SDS011;56427;51.580;4.656;2022-10-16T09:59:50;12.82;;;2.00;;
69305;SDS011;56427;51.580;4.656;2022-10-16T10:02:18;14.70;;;2.30;;
69305;SDS011;56427;51.580;4.656;2022-10-16T10:04:52;11.15;;;2.25;;
69305;SDS011;56427;51.580;4.656;2022-10-16T10:07:25;15.15;;;2.05;;
69305;SDS011;56427;51.580;4.656;2022-10-16T10:09:52;12.75;;;2.03;;
69305;SDS011;56427;51.580;4.656;2022-10-16T10:12:19;8.30;;;1.80;;
69305;SDS011;56427;51.580;4.656;2022-10-16T10:14:52;13.30;;;2.03;;
69305;SDS011;56427;51.580;4.656;2022-10-16T10:17:21;14.18;;;2.25;;
69305;SDS011;56427;51.580;4.656;2022-10-16T10:22:19;13.20;;;1.85;;
69305;SDS011;56427;51.580;4.656;2022-10-16T10:25:07;9.35;;;1.80;;
69305;SDS011;56427;51.580;4.656;2022-10-16T10:35:45;12.52;;;2.08;;
69305;SDS011;56427;51.580;4.656;2022-10-16T10:44:10;12.10;;;1.98;;
69305;SDS011;56427;51.580;4.656;2022-10-16T10:46:51;12.00;;;1.88;;
69305;SDS011;56427;51.580;4.656;2022-10-16T10:49:34;13.23;;;2.33;;
69305;SDS011;56427;51.580;4.656;2022-10-16T10:52:34;16.85;;;2.05;;
69305;SDS011;56427;51.580;4.656;2022-10-16T10:58:18;13.07;;;1.95;;
69305;SDS011;56427;51.580;4.656;2022-10-16T11:06:11;9.88;;;1.90;;
69305;SDS011;56427;51.580;4.656;2022-10-16T11:08:50;16.73;;;1.87;;
69305;SDS011;56427;51.580;4.656;2022-10-16T11:11:43;12.63;;;2.25;;
69305;SDS011;56427;51.580;4.656;2022-10-16T11:14:16;12.73;;;2.33;;
69305;SDS011;56427;51.580;4.656;2022-10-16T11:22:00;14.00;;;2.20;;
69305;SDS011;56427;51.580;4.656;2022-10-16T11:27:03;11.48;;;2.10;;
69305;SDS011;56427;51.580;4.656;2022-10-16T11:29:43;13.70;;;2.25;;
69305;SDS011;56427;51.580;4.656;2022-10-16T11:32:22;11.52;;;1.88;;
69305;SDS011;56427;51.580;4.656;2022-10-16T11:34:57;14.43;;;2.17;;
69305;SDS011;56427;51.580;4.656;2022-10-16T11:37:28;8.95;;;1.77;;
69305;SDS011;56427;51.580;4.656;2022-10-16T11:40:00;8.65;;;1.77;;
69305;SDS011;56427;51.580;4.656;2022-10-16T11:42:40;13.43;;;2.00;;
69305;SDS011;56427;51.580;4.656;2022-10-16T11:45:33;14.25;;;2.75;;
69305;SDS011;56427;51.580;4.656;2022-10-16T11:48:30;12.33;;;1.83;;
69305;SDS011;56427;51.580;4.656;2022-10-16T11:57:01;7.35;;;1.58;;
69305;SDS011;56427;51.580;4.656;2022-10-16T11:59:36;12.60;;;1.80;;
69305;SDS011;56427;51.580;4.656;2022-10-16T12:05:20;11.88;;;2.08;;
69305;SDS011;56427;51.580;4.656;2022-10-16T12:08:14;13.60;;;2.20;;
69305;SDS011;56427;51.580;4.656;2022-10-16T12:10:40;9.35;;;2.35;;
69305;SDS011;56427;51.580;4.656;2022-10-16T12:18:42;13.00;;;1.87;;
69305;SDS011;56427;51.580;4.656;2022-10-16T12:21:09;10.65;;;1.98;;
69305;SDS011;56427;51.580;4.656;2022-10-16T12:23:46;11.80;;;2.13;;
69305;SDS011;56427;51.580;4.656;2022-10-16T12:26:14;12.82;;;1.95;;
69305;SDS011;56427;51.580;4.656;2022-10-16T12:28:49;19.48;;;2.53;;
69305;SDS011;56427;51.580;4.656;2022-10-16T12:31:16;14.97;;;2.23;;
69305;SDS011;56427;51.580;4.656;2022-10-16T12:33:58;10.98;;;2.45;;
69305;SDS011;56427;51.580;4.656;2022-10-16T12:36:30;14.32;;;2.10;;
69305;SDS011;56427;51.580;4.656;2022-10-16T12:38:58;14.10;;;2.08;;
69305;SDS011;56427;51.580;4.656;2022-10-16T12:41:26;15.63;;;2.40;;
69305;SDS011;56427;51.580;4.656;2022-10-16T12:44:00;18.27;;;2.63;;
69305;SDS011;56427;51.580;4.656;2022-10-16T12:49:04;11.13;;;2.77;;
69305;SDS011;56427;51.580;4.656;2022-10-16T12:51:50;13.35;;;2.55;;
69305;SDS011;56427;51.580;4.656;2022-10-16T12:59:29;9.88;;;1.98;;
69305;SDS011;56427;51.580;4.656;2022-10-16T13:02:07;8.97;;;1.80;;
69305;SDS011;56427;51.580;4.656;2022-10-16T13:04:51;14.80;;;2.65;;
69305;SDS011;56427;51.580;4.656;2022-10-16T13:10:39;15.13;;;2.45;;
69305;SDS011;56427;51.580;4.656;2022-10-16T13:13:19;10.98;;;1.92;;
69305;SDS011;56427;51.580;4.656;2022-10-16T13:16:13;11.77;;;2.40;;
69305;SDS011;56427;51.580;4.656;2022-10-16T13:18:53;12.48;;;2.30;;
69305;SDS011;56427;51.580;4.656;2022-10-16T13:27:04;12.82;;;2.15;;
69305;SDS011;56427;51.580;4.656;2022-10-16T13:29:38;11.27;;;1.80;;
69305;SDS011;56427;51.580;4.656;2022-10-16T13:32:09;10.77;;;1.85;;
69305;SDS011;56427;51.580;4.656;2022-10-16T13:34:46;10.05;;;2.08;;
69305;SDS011;56427;51.580;4.656;2022-10-16T13:37:17;8.93;;;1.80;;
69305;SDS011;56427;51.580;4.656;2022-10-16T13:39:44;9.30;;;1.88;;
69305;SDS011;56427;51.580;4.656;2022-10-16T13:42:10;9.87;;;1.97;;
69305;SDS011;56427;51.580;4.656;2022-10-16T13:44:40;12.07;;;2.25;;
69305;SDS011;56427;51.580;4.656;2022-10-16T13:47:18;10.87;;;2.50;;
69305;SDS011;56427;51.580;4.656;2022-10-16T13:49:46;8.52;;;1.98;;
69305;SDS011;56427;51.580;4.656;2022-10-16T13:52:16;12.30;;;2.45;;
69305;SDS011;56427;51.580;4.656;2022-10-16T13:54:46;10.32;;;1.88;;
69305;SDS011;56427;51.580;4.656;2022-10-16T13:57:14;10.20;;;1.80;;
69305;SDS011;56427;51.580;4.656;2022-10-16T13:59:41;10.85;;;2.10;;
69305;SDS011;56427;51.580;4.656;2022-10-16T14:04:43;8.63;;;1.63;;
69305;SDS011;56427;51.580;4.656;2022-10-16T14:07:13;8.48;;;1.77;;
69305;SDS011;56427;51.580;4.656;2022-10-16T14:09:47;8.80;;;1.92;;
69305;SDS011;56427;51.580;4.656;2022-10-16T14:12:14;9.77;;;2.22;;
69305;SDS011;56427;51.580;4.656;2022-10-16T14:14:44;8.37;;;1.80;;
69305;SDS011;56427;51.580;4.656;2022-10-16T14:17:15;9.80;;;1.70;;
69305;SDS011;56427;51.580;4.656;2022-10-16T14:19:48;9.30;;;1.60;;
69305;SDS011;56427;51.580;4.656;2022-10-16T14:22:29;6.57;;;1.80;;
69305;SDS011;56427;51.580;4.656;2022-10-16T14:24:57;8.67;;;2.20;;
69305;SDS011;56427;51.580;4.656;2022-10-16T14:27:34;11.10;;;1.92;;
69305;SDS011;56427;51.580;4.656;2022-10-16T14:30:20;7.50;;;1.92;;
69305;SDS011;56427;51.580;4.656;2022-10-16T14:32:57;7.35;;;1.80;;
69305;SDS011;56427;51.580;4.656;2022-10-16T14:37:51;7.70;;;1.90;;
69305;SDS011;56427;51.580;4.656;2022-10-16T14:40:17;11.55;;;1.80;;
69305;SDS011;56427;51.580;4.656;2022-10-16T14:42:44;7.60;;;1.30;;
69305;SDS011;56427;51.580;4.656;2022-10-16T14:45:10;7.10;;;1.80;;
69305;SDS011;56427;51.580;4.656;2022-10-16T14:47:44;6.55;;;1.65;;
69305;SDS011;56427;51.580;4.656;2022-10-16T14:50:14;7.80;;;2.00;;
69305;SDS011;56427;51.580;4.656;2022-10-16T14:52:39;8.60;;;2.67;;
69305;SDS011;56427;51.580;4.656;2022-10-16T14:55:05;8.02;;;1.70;;
69305;SDS011;56427;51.580;4.656;2022-10-16T14:57:31;8.50;;;1.60;;
69305;SDS011;56427;51.580;4.656;2022-10-16T15:00:00;9.60;;;1.88;;
69305;SDS011;56427;51.580;4.656;2022-10-16T15:02:33;7.77;;;1.67;;
69305;SDS011;56427;51.580;4.656;2022-10-16T15:05:11;7.00;;;1.83;;
69305;SDS011;56427;51.580;4.656;2022-10-16T15:07:37;8.50;;;1.98;;
69305;SDS011;56427;51.580;4.656;2022-10-16T15:10:02;6.37;;;1.60;;
69305;SDS011;56427;51.580;4.656;2022-10-16T15:12:28;8.47;;;1.73;;
69305;SDS011;56427;51.580;4.656;2022-10-16T15:14:53;8.13;;;1.63;;
69305;SDS011;56427;51.580;4.656;2022-10-16T15:17:19;8.27;;;1.80;;
69305;SDS011;56427;51.580;4.656;2022-10-16T15:19:44;9.60;;;2.13;;
69305;SDS011;56427;51.580;4.656;2022-10-16T15:22:10;7.57;;;1.90;;
69305;SDS011;56427;51.580;4.656;2022-10-16T15:24:37;7.28;;;2.22;;
69305;SDS011;56427;51.580;4.656;2022-10-16T15:27:02;19.30;;;3.53;;
69305;SDS011;56427;51.580;4.656;2022-10-16T15:29:28;8.57;;;1.90;;
69305;SDS011;56427;51.580;4.656;2022-10-16T15:31:53;9.43;;;2.13;;
69305;SDS011;56427;51.580;4.656;2022-10-16T15:34:18;6.93;;;1.90;;
69305;SDS011;56427;51.580;4.656;2022-10-16T15:36:44;9.43;;;2.13;;
69305;SDS011;56427;51.580;4.656;2022-10-16T15:39:14;9.83;;;2.13;;
69305;SDS011;56427;51.580;4.656;2022-10-16T15:41:41;6.68;;;1.70;;
69305;SDS011;56427;51.580;4.656;2022-10-16T15:44:07;9.68;;;1.80;;
69305;SDS011;56427;51.580;4.656;2022-10-16T15:46:32;10.20;;;1.53;;
69305;SDS011;56427;51.580;4.656;2022-10-16T15:48:59;9.60;;;1.60;;
69305;SDS011;56427;51.580;4.656;2022-10-16T15:51:25;7.40;;;1.80;;
69305;SDS011;56427;51.580;4.656;2022-10-16T15:53:54;7.17;;;1.70;;
69305;SDS011;56427;51.580;4.656;2022-10-16T15:56:23;9.52;;;1.73;;
69305;SDS011;56427;51.580;4.656;2022-10-16T15:58:50;5.82;;;1.70;;
69305;SDS011;56427;51.580;4.656;2022-10-16T16:01:16;10.10;;;1.80;;
69305;SDS011;56427;51.580;4.656;2022-10-16T16:03:42;8.30;;;1.77;;
69305;SDS011;56427;51.580;4.656;2022-10-16T16:06:08;7.47;;;1.90;;
69305;SDS011;56427;51.580;4.656;2022-10-16T16:08:35;17.63;;;7.75;;
69305;SDS011;56427;51.580;4.656;2022-10-16T16:11:02;7.80;;;1.88;;
69305;SDS011;56427;51.580;4.656;2022-10-16T16:13:38;7.30;;;1.70;;
69305;SDS011;56427;51.580;4.656;2022-10-16T16:16:05;5.37;;;1.57;;
69305;SDS011;56427;51.580;4.656;2022-10-16T16:18:34;9.27;;;1.73;;
69305;SDS011;56427;51.580;4.656;2022-10-16T16:21:00;9.43;;;3.07;;
69305;SDS011;56427;51.580;4.656;2022-10-16T16:23:25;6.20;;;1.95;;
69305;SDS011;56427;51.580;4.656;2022-10-16T16:26:10;7.43;;;1.90;;
69305;SDS011;56427;51.580;4.656;2022-10-16T16:28:51;8.05;;;1.95;;
69305;SDS011;56427;51.580;4.656;2022-10-16T16:31:18;9.57;;;2.17;;
69305;SDS011;56427;51.580;4.656;2022-10-16T16:33:43;4.80;;;1.60;;
69305;SDS011;56427;51.580;4.656;2022-10-16T16:36:10;6.53;;;1.80;;
69305;SDS011;56427;51.580;4.656;2022-10-16T16:38:35;8.07;;;2.37;;